createdAt,value
2019-05-15T00:02:10.949Z,3.33
2019-05-15T00:04:42.699Z,3.35
2019-05-15T00:07:12.256Z,3.08
2019-05-15T00:09:42.061Z,3.05
2019-05-15T00:12:11.479Z,2.90
2019-05-15T00:14:40.954Z,3.27
2019-05-15T00:17:12.054Z,3.98
2019-05-15T00:19:41.523Z,2.95
2019-05-15T00:22:11.006Z,2.50
2019-05-15T00:24:40.481Z,3.35
2019-05-15T00:27:10.038Z,2.80
2019-05-15T00:30:00.066Z,2.83
2019-05-15T00:32:29.556Z,3.90
2019-05-15T00:34:59.013Z,3.30
2019-05-15T00:37:29.501Z,2.98
2019-05-15T00:39:59.286Z,3.25
2019-05-15T00:42:28.839Z,2.92
2019-05-15T00:44:58.521Z,3.90
2019-05-15T00:47:28.722Z,2.95
2019-05-15T00:50:10.513Z,2.77
2019-05-15T00:52:40.618Z,2.80
2019-05-15T00:55:11.354Z,2.83
2019-05-15T00:57:40.837Z,3.60
2019-05-15T01:00:11.503Z,3.37
2019-05-15T01:02:44.998Z,3.08
2019-05-15T01:05:18.512Z,3.08
2019-05-15T01:07:48.001Z,3.58
2019-05-15T01:10:19.372Z,3.45
2019-05-15T01:13:02.398Z,2.80
2019-05-15T01:15:31.851Z,3.00
2019-05-15T01:18:01.298Z,4.60
2019-05-15T01:20:30.911Z,2.77
2019-05-15T01:23:00.354Z,3.15
2019-05-15T01:25:29.800Z,3.55
2019-05-15T01:27:59.265Z,2.90
2019-05-15T01:30:28.751Z,3.25
2019-05-15T01:32:59.200Z,3.05
2019-05-15T01:35:30.866Z,2.58
2019-05-15T01:38:00.247Z,2.52
2019-05-15T01:40:29.695Z,2.77
2019-05-15T01:42:59.210Z,2.65
2019-05-15T01:45:28.709Z,2.90
2019-05-15T01:47:58.581Z,2.60
2019-05-15T01:50:29.229Z,3.20
2019-05-15T01:52:58.726Z,2.98
2019-05-15T01:55:29.852Z,2.58
2019-05-15T01:57:59.257Z,2.55
2019-05-15T02:00:28.698Z,3.52
2019-05-15T02:02:58.788Z,2.77
2019-05-15T02:05:28.426Z,2.52
2019-05-15T02:07:58.559Z,3.08
2019-05-15T02:10:29.221Z,2.22
2019-05-15T02:12:58.904Z,2.67
2019-05-15T02:15:28.648Z,2.25
2019-05-15T02:17:58.860Z,2.83
2019-05-15T02:20:34.635Z,2.70
2019-05-15T02:23:04.099Z,2.47
2019-05-15T02:25:33.538Z,3.70
2019-05-15T02:28:02.987Z,2.62
2019-05-15T02:30:34.148Z,3.08
2019-05-15T02:33:03.606Z,2.65
2019-05-15T02:35:33.067Z,2.40
2019-05-15T02:38:02.526Z,2.12
2019-05-15T02:40:31.956Z,2.70
2019-05-15T02:43:01.399Z,2.70
2019-05-15T02:45:30.835Z,2.62
2019-05-15T02:48:00.317Z,2.95
2019-05-15T02:50:29.751Z,2.90
2019-05-15T02:53:00.624Z,2.60
2019-05-15T02:55:30.431Z,2.67
2019-05-15T02:57:59.883Z,2.30
2019-05-15T03:00:42.495Z,2.55
2019-05-15T03:03:00.596Z,2.20
2019-05-15T03:05:43.505Z,2.77
2019-05-15T03:08:13.031Z,2.40
2019-05-15T03:10:42.552Z,3.25
2019-05-15T03:13:12.096Z,2.40
2019-05-15T03:16:03.491Z,3.60
2019-05-15T03:18:33.032Z,2.42
2019-05-15T03:21:02.462Z,2.30
2019-05-15T03:23:31.917Z,3.33
2019-05-15T03:26:04.365Z,2.77
2019-05-15T03:28:32.486Z,3.17
2019-05-15T03:31:17.749Z,3.25
2019-05-15T03:33:37.106Z,2.47
2019-05-15T03:36:05.360Z,3.17
2019-05-15T03:38:34.783Z,2.72
2019-05-15T03:41:19.519Z,3.05
2019-05-15T03:43:49.666Z,2.37
2019-05-15T03:46:19.943Z,3.10
2019-05-15T03:48:49.808Z,2.77
2019-05-15T03:51:20.094Z,3.00
2019-05-15T03:53:50.559Z,2.85
2019-05-15T03:56:21.693Z,2.95
2019-05-15T03:58:51.210Z,3.08
2019-05-15T04:01:34.097Z,3.10
2019-05-15T04:03:59.855Z,2.70
2019-05-15T04:06:29.849Z,2.47
2019-05-15T04:08:59.522Z,3.17
2019-05-15T04:11:29.506Z,3.02
2019-05-15T04:13:59.562Z,2.83
2019-05-15T04:16:29.732Z,3.45
2019-05-15T04:18:59.448Z,3.42
2019-05-15T04:21:32.511Z,3.17
2019-05-15T04:24:03.200Z,3.77
2019-05-15T04:26:35.403Z,3.12
2019-05-15T04:29:04.910Z,3.02
2019-05-15T04:31:50.814Z,3.62
2019-05-15T04:34:08.968Z,2.92
2019-05-15T04:36:39.520Z,2.58
2019-05-15T04:39:09.843Z,3.05
2019-05-15T04:41:39.504Z,3.40
2019-05-15T04:44:10.261Z,2.87
2019-05-15T04:46:41.112Z,3.12
2019-05-15T04:49:10.563Z,3.05
2019-05-15T04:51:40.018Z,3.70
2019-05-15T04:54:09.880Z,3.02
2019-05-15T04:56:40.140Z,3.25
2019-05-15T04:59:10.376Z,2.77
2019-05-15T05:01:40.567Z,3.47
2019-05-15T05:04:10.193Z,3.17
2019-05-15T05:06:43.570Z,3.20
2019-05-15T05:09:13.005Z,3.22
2019-05-15T05:11:48.855Z,3.12
2019-05-15T05:14:19.011Z,3.45
2019-05-15T05:16:49.830Z,3.40
2019-05-15T05:19:20.289Z,3.83
2019-05-15T05:21:50.107Z,3.90
2019-05-15T05:24:20.904Z,3.15
2019-05-15T05:26:50.396Z,2.95
2019-05-15T05:29:19.842Z,3.22
2019-05-15T05:31:49.370Z,3.02
2019-05-15T05:34:20.801Z,3.58
2019-05-15T05:36:50.307Z,2.87
2019-05-15T05:39:20.018Z,2.92
2019-05-15T05:41:49.600Z,5.05
2019-05-15T05:44:19.595Z,3.30
2019-05-15T05:46:49.045Z,2.98
2019-05-15T05:49:18.588Z,3.40
2019-05-15T05:51:48.282Z,4.00
2019-05-15T05:54:18.876Z,4.25
2019-05-15T05:56:50.445Z,3.35
2019-05-15T05:59:23.533Z,2.67
2019-05-15T06:01:52.989Z,3.40
2019-05-15T06:04:22.484Z,3.22
2019-05-15T06:07:06.179Z,3.45
2019-05-15T06:09:28.598Z,3.08
2019-05-15T06:11:58.379Z,3.10
2019-05-15T06:14:28.882Z,3.58
2019-05-15T06:16:59.018Z,3.50
2019-05-15T06:19:49.262Z,2.98
2019-05-15T06:22:18.941Z,3.35
2019-05-15T06:24:48.588Z,2.98
2019-05-15T06:27:20.011Z,3.42
2019-05-15T06:29:49.302Z,3.77
2019-05-15T06:32:19.488Z,3.15
2019-05-15T06:34:50.205Z,3.67
2019-05-15T06:37:19.883Z,3.42
2019-05-15T06:39:50.734Z,3.22
2019-05-15T06:42:20.354Z,3.22
2019-05-15T06:44:49.762Z,4.03
2019-05-15T06:47:23.321Z,3.22
2019-05-15T06:49:52.719Z,4.17
2019-05-15T06:52:22.176Z,3.10
2019-05-15T06:54:53.044Z,3.00
2019-05-15T06:57:23.516Z,3.08
2019-05-15T07:00:12.535Z,3.47
2019-05-15T07:02:42.037Z,3.25
2019-05-15T07:05:18.410Z,3.58
2019-05-15T07:07:48.934Z,4.00
2019-05-15T07:10:20.139Z,2.77
2019-05-15T07:12:51.558Z,2.80
2019-05-15T07:15:20.848Z,3.35
2019-05-15T07:17:50.631Z,2.87
2019-05-15T07:20:40.966Z,4.22
2019-05-15T07:23:10.423Z,3.42
2019-05-15T07:26:00.830Z,3.55
2019-05-15T07:28:30.345Z,2.60
2019-05-15T07:30:59.809Z,3.15
2019-05-15T07:33:39.655Z,3.83
2019-05-15T07:36:01.551Z,2.30
2019-05-15T07:38:30.999Z,3.12
2019-05-15T07:41:10.105Z,2.80
2019-05-15T07:43:39.222Z,2.67
2019-05-15T07:46:09.351Z,2.70
2019-05-15T07:48:43.974Z,2.02
2019-05-15T07:51:14.967Z,2.37
2019-05-15T07:53:44.787Z,2.92
2019-05-15T07:56:14.262Z,2.60
2019-05-15T07:58:43.763Z,2.77
2019-05-15T08:01:13.195Z,2.47
2019-05-15T08:03:56.506Z,1.85
2019-05-15T08:06:20.751Z,2.55
2019-05-15T08:09:08.479Z,1.80
2019-05-15T08:14:48.312Z,1.70
2019-05-15T08:17:22.018Z,1.70
2019-05-15T08:20:00.494Z,1.67
2019-05-15T08:22:41.839Z,1.52
2019-05-15T08:25:30.534Z,1.32
2019-05-15T08:27:58.897Z,1.55
2019-05-15T08:30:38.117Z,1.65
2019-05-15T08:33:12.040Z,1.47
2019-05-15T08:35:47.332Z,1.15
2019-05-15T08:38:14.307Z,1.12
2019-05-15T08:40:44.018Z,1.62
2019-05-15T08:43:15.031Z,1.40
2019-05-15T08:45:45.811Z,1.60
2019-05-15T08:48:15.373Z,1.17
2019-05-15T08:50:44.876Z,1.10
2019-05-15T08:56:00.479Z,2.17
2019-05-15T08:58:48.606Z,1.42
2019-05-15T09:01:18.332Z,1.40
2019-05-15T09:03:51.470Z,1.60
2019-05-15T09:06:23.205Z,1.32
2019-05-15T09:08:54.430Z,1.52
2019-05-15T09:11:23.933Z,1.32
2019-05-15T09:13:54.715Z,1.62
2019-05-15T09:16:28.040Z,2.27
2019-05-15T09:21:28.730Z,1.92
2019-05-15T09:23:58.962Z,1.37
2019-05-15T09:26:28.635Z,1.42
2019-05-15T09:28:58.709Z,1.52
2019-05-15T09:31:28.582Z,1.50
2019-05-15T09:33:58.705Z,1.55
2019-05-15T09:36:28.905Z,1.65
2019-05-15T09:39:01.700Z,1.60
2019-05-15T09:41:31.812Z,1.77
2019-05-15T09:44:03.788Z,1.60
2019-05-15T09:46:34.856Z,2.22
2019-05-15T09:49:04.944Z,1.47
2019-05-15T09:51:38.329Z,1.50
2019-05-15T09:54:08.115Z,2.52
2019-05-15T09:56:38.463Z,1.67
2019-05-15T09:59:18.421Z,2.10
2019-05-15T10:01:48.304Z,1.75
2019-05-15T10:04:19.003Z,1.45
2019-05-15T10:06:48.826Z,1.62
2019-05-15T10:09:20.118Z,1.67
2019-05-15T10:11:49.625Z,1.52
2019-05-15T10:14:19.623Z,2.08
2019-05-15T10:16:50.165Z,1.35
2019-05-15T10:19:22.616Z,1.90
2019-05-15T10:21:55.177Z,1.62
2019-05-15T10:24:24.696Z,1.80
2019-05-15T10:26:57.999Z,1.50
2019-05-15T10:29:28.126Z,1.87
2019-05-15T10:32:01.204Z,1.32
2019-05-15T10:34:30.663Z,1.87
2019-05-15T10:37:01.587Z,1.82
2019-05-15T10:39:32.348Z,1.60
2019-05-15T10:42:08.241Z,2.42
2019-05-15T10:44:39.214Z,1.47
2019-05-15T10:47:08.906Z,1.80
2019-05-15T10:49:38.985Z,2.27
2019-05-15T10:52:11.405Z,2.17
2019-05-15T10:54:41.115Z,2.00
2019-05-15T10:57:14.036Z,1.98
2019-05-15T10:59:43.992Z,1.80
2019-05-15T11:02:19.037Z,1.57
2019-05-15T11:04:48.697Z,1.67
2019-05-15T11:07:19.518Z,1.98
2019-05-15T11:09:51.125Z,2.22
2019-05-15T11:12:20.599Z,1.40
2019-05-15T11:14:50.078Z,1.30
2019-05-15T11:17:21.180Z,2.15
2019-05-15T11:19:50.629Z,1.95
2019-05-15T11:22:20.779Z,1.92
2019-05-15T11:24:52.980Z,1.40
2019-05-15T11:27:31.481Z,1.72
2019-05-15T11:30:02.349Z,1.47
2019-05-15T11:32:33.396Z,1.90
2019-05-15T11:35:04.454Z,1.90
2019-05-15T11:37:34.213Z,1.75
2019-05-15T11:40:05.015Z,1.37
2019-05-15T11:42:35.922Z,1.35
2019-05-15T11:45:10.305Z,1.30
2019-05-15T11:47:40.302Z,1.40
2019-05-15T11:50:11.755Z,2.17
2019-05-15T11:52:45.425Z,1.75
2019-05-15T11:55:16.173Z,2.22
2019-05-15T11:57:50.461Z,1.50
2019-05-15T12:00:26.827Z,1.70
2019-05-15T12:05:20.790Z,1.32
2019-05-15T12:07:50.795Z,1.10
2019-05-15T12:10:20.399Z,1.35
2019-05-15T12:12:49.914Z,1.25
2019-05-15T12:15:19.883Z,1.77
2019-05-15T12:17:49.362Z,1.17
2019-05-15T12:20:19.647Z,1.17
2019-05-15T12:22:50.418Z,1.35
2019-05-15T12:25:21.474Z,1.70
2019-05-15T12:27:51.610Z,1.92
2019-05-15T12:30:22.606Z,1.32
2019-05-15T12:32:53.065Z,1.40
2019-05-15T12:35:22.571Z,2.27
2019-05-15T12:37:52.077Z,1.65
2019-05-15T13:03:49.249Z,1.60
2019-05-15T13:06:19.393Z,1.27
2019-05-15T13:08:51.817Z,1.17
2019-05-15T13:11:24.159Z,1.67
2019-05-15T13:13:54.747Z,1.82
2019-05-15T13:16:27.994Z,1.20
2019-05-15T13:18:58.815Z,1.20
2019-05-15T13:21:29.707Z,1.25
2019-05-15T13:24:00.326Z,0.88
2019-05-15T13:26:29.771Z,1.27
2019-05-15T13:28:59.268Z,1.07
2019-05-15T13:31:30.950Z,1.72
2019-05-15T13:34:00.391Z,1.42
2019-05-15T13:36:30.843Z,1.15
2019-05-15T13:39:00.287Z,1.70
2019-05-15T13:41:31.390Z,1.62
2019-05-15T13:44:09.006Z,1.42
2019-05-15T13:46:39.553Z,1.00
2019-05-15T13:49:09.111Z,1.70
2019-05-15T13:51:38.673Z,1.70
2019-05-15T13:54:08.823Z,1.40
2019-05-15T13:56:38.376Z,1.55
2019-05-15T13:59:08.932Z,1.55
2019-05-15T14:01:39.417Z,1.60
2019-05-15T14:04:10.480Z,1.30
2019-05-15T14:06:41.502Z,1.12
2019-05-15T14:09:12.335Z,1.87
2019-05-15T14:11:41.805Z,1.00
2019-05-15T14:14:12.026Z,1.10
2019-05-15T14:16:43.595Z,1.40
2019-05-15T14:19:13.064Z,1.45
2019-05-15T14:21:42.550Z,2.08
2019-05-15T14:24:11.987Z,1.25
2019-05-15T14:26:42.826Z,2.08
2019-05-15T14:29:12.318Z,1.50
2019-05-15T14:31:41.798Z,1.10
2019-05-15T14:34:13.793Z,1.57
2019-05-15T14:36:43.264Z,1.27
2019-05-15T14:39:14.440Z,1.42
2019-05-15T14:41:49.235Z,1.67
2019-05-15T14:44:39.079Z,1.35
2019-05-15T14:47:09.883Z,1.32
2019-05-15T14:49:44.501Z,2.17
2019-05-15T14:52:11.154Z,1.75
2019-05-15T14:54:40.613Z,1.82
2019-05-15T14:57:10.104Z,1.20
2019-05-15T14:59:39.548Z,1.40
2019-05-15T15:02:09.220Z,1.47
2019-05-15T15:04:39.318Z,1.85
2019-05-15T15:07:14.599Z,1.92
2019-05-15T15:09:44.126Z,2.30
2019-05-15T15:12:22.232Z,1.70
2019-05-15T15:14:53.650Z,2.25
2019-05-15T15:17:22.791Z,1.35
2019-05-15T15:19:52.834Z,3.15
2019-05-15T15:22:22.634Z,1.75
2019-05-15T15:24:52.068Z,2.02
2019-05-15T15:27:28.043Z,2.00
2019-05-15T15:29:58.621Z,1.65
2019-05-15T15:32:28.407Z,2.00
2019-05-15T15:34:58.723Z,1.75
2019-05-15T15:37:28.693Z,1.80
2019-05-15T15:40:00.579Z,1.82
2019-05-15T15:42:30.022Z,1.50
2019-05-15T15:44:59.487Z,1.90
2019-05-15T15:47:28.928Z,1.70
2019-05-15T15:49:58.612Z,2.00
2019-05-15T15:52:29.892Z,1.37
2019-05-15T15:54:59.370Z,1.67
2019-05-15T15:57:29.770Z,1.92
2019-05-15T15:59:59.247Z,2.27
2019-05-15T16:02:28.760Z,2.30
2019-05-15T16:04:58.891Z,2.08
2019-05-15T16:07:28.628Z,2.10
2019-05-15T16:09:58.889Z,1.80
2019-05-15T16:12:28.440Z,1.50
2019-05-15T16:14:58.009Z,1.77
2019-05-15T16:17:28.747Z,1.85
2019-05-15T16:19:58.679Z,2.00
2019-05-15T16:22:28.543Z,1.95
2019-05-15T16:25:02.300Z,2.42
2019-05-15T16:27:30.042Z,1.82
2019-05-15T16:29:59.855Z,1.87
2019-05-15T16:32:29.342Z,1.40
2019-05-15T16:35:00.388Z,4.90
2019-05-15T16:37:30.037Z,2.00
2019-05-15T16:40:00.198Z,2.80
2019-05-15T16:42:29.642Z,2.02
2019-05-15T16:44:59.690Z,1.60
2019-05-15T16:47:29.124Z,2.17
2019-05-15T16:50:00.861Z,1.57
2019-05-15T16:52:31.245Z,1.85
2019-05-15T16:55:00.779Z,1.85
2019-05-15T16:57:30.227Z,1.62
2019-05-15T17:00:01.224Z,1.65
2019-05-15T17:02:32.244Z,2.65
2019-05-15T17:05:01.990Z,1.90
2019-05-15T17:07:34.124Z,1.60
2019-05-15T17:10:04.238Z,2.45
2019-05-15T17:12:35.027Z,2.40
2019-05-15T17:15:08.313Z,1.98
2019-05-15T17:17:38.774Z,2.22
2019-05-15T17:20:10.075Z,1.55
2019-05-15T17:22:39.809Z,1.32
2019-05-15T17:25:09.685Z,1.37
2019-05-15T17:27:39.188Z,1.12
2019-05-15T17:30:09.609Z,1.72
2019-05-15T17:32:40.182Z,1.22
2019-05-15T17:35:10.690Z,1.40
2019-05-15T17:37:40.126Z,1.72
2019-05-15T17:40:11.562Z,1.22
2019-05-15T17:42:41.003Z,1.87
2019-05-15T17:45:12.131Z,2.00
2019-05-15T17:47:41.581Z,2.75
2019-05-15T17:50:11.878Z,2.15
2019-05-15T17:52:41.467Z,1.70
2019-05-15T17:55:11.262Z,1.55
2019-05-15T17:57:40.804Z,1.50
2019-05-15T18:00:12.843Z,1.55
2019-05-15T18:02:42.417Z,2.10
2019-05-15T18:05:13.888Z,1.70
2019-05-15T18:07:45.431Z,1.10
2019-05-15T18:10:15.989Z,1.52
2019-05-15T18:12:48.792Z,0.93
2019-05-15T18:15:18.803Z,1.47
2019-05-15T18:17:49.694Z,1.25
2019-05-15T18:20:32.331Z,1.70
2019-05-15T18:23:01.930Z,1.30
2019-05-15T18:25:33.106Z,1.62
2019-05-15T18:28:03.571Z,1.05
2019-05-15T18:30:34.255Z,1.20
2019-05-15T18:33:08.633Z,2.83
2019-05-15T18:35:38.508Z,1.12
2019-05-15T18:38:13.298Z,1.42
2019-05-15T18:40:45.026Z,1.12
2019-05-15T18:43:17.981Z,1.30
2019-05-15T18:45:47.723Z,1.47
2019-05-15T18:48:18.403Z,1.02
2019-05-15T18:51:09.095Z,1.10
2019-05-15T18:53:38.927Z,1.80
2019-05-15T18:56:09.036Z,1.32
2019-05-15T18:58:38.670Z,1.42
2019-05-15T19:01:09.676Z,1.25
2019-05-15T19:03:39.772Z,1.37
2019-05-15T19:06:12.466Z,1.55
2019-05-15T19:08:43.523Z,1.20
2019-05-15T19:11:12.982Z,1.75
2019-05-15T19:13:48.037Z,2.58
2019-05-15T19:16:18.183Z,1.42
2019-05-15T19:18:48.011Z,1.52
2019-05-15T19:21:17.509Z,1.82
2019-05-15T19:23:47.802Z,1.95
2019-05-15T19:26:19.207Z,1.70
2019-05-15T19:28:49.270Z,1.65
2019-05-15T19:31:26.222Z,1.20
2019-05-15T19:33:49.865Z,1.40
2019-05-15T19:36:20.466Z,1.70
2019-05-15T19:38:51.846Z,1.65
2019-05-15T19:41:28.716Z,1.67
2019-05-15T19:44:03.812Z,1.05
2019-05-15T19:46:40.309Z,1.42
2019-05-15T19:49:11.955Z,1.50
2019-05-15T19:51:43.962Z,1.55
2019-05-15T19:54:14.117Z,1.52
2019-05-15T19:56:45.068Z,1.30
2019-05-15T19:59:22.441Z,1.22
2019-05-15T20:01:49.715Z,1.32
2019-05-15T20:04:19.422Z,1.60
2019-05-15T20:06:48.955Z,1.20
2019-05-15T20:09:18.686Z,1.57
2019-05-15T20:11:48.205Z,1.07
2019-05-15T20:14:20.337Z,1.12
2019-05-15T20:16:49.858Z,1.20
2019-05-15T20:19:19.889Z,1.20
2019-05-15T20:21:49.442Z,0.70
2019-05-15T20:24:18.877Z,1.27
2019-05-15T20:26:54.004Z,1.00
2019-05-15T20:29:23.718Z,1.27
2019-05-15T20:31:55.852Z,1.22
2019-05-15T20:34:24.458Z,1.15
2019-05-15T20:36:58.629Z,1.22
2019-05-15T20:39:32.849Z,0.95
2019-05-15T20:42:04.458Z,1.20
2019-05-15T20:44:37.889Z,0.93
2019-05-15T20:47:08.273Z,1.13
2019-05-15T20:49:39.475Z,1.32
2019-05-15T20:52:08.909Z,1.10
2019-05-15T20:54:39.932Z,0.85
2019-05-15T20:57:09.457Z,1.40
2019-05-15T20:59:42.060Z,1.42
2019-05-15T21:02:18.587Z,1.13
2019-05-15T21:04:48.978Z,1.20
2019-05-15T21:07:34.845Z,1.00
2019-05-15T21:09:54.091Z,1.30
2019-05-15T21:12:26.239Z,1.40
2019-05-15T21:14:58.025Z,1.42
2019-05-15T21:17:28.298Z,1.70
2019-05-15T21:20:01.099Z,1.98
2019-05-15T21:22:30.811Z,2.42
2019-05-15T21:25:00.321Z,1.50
2019-05-15T21:27:32.615Z,1.80
2019-05-15T21:30:00.956Z,1.15
2019-05-15T21:32:38.296Z,1.07
2019-05-15T21:35:09.058Z,1.40
2019-05-15T21:37:40.406Z,1.27
2019-05-15T21:40:10.196Z,1.10
2019-05-15T21:42:41.832Z,1.07
2019-05-15T21:45:14.817Z,1.57
2019-05-15T21:47:42.527Z,1.60
2019-05-15T21:50:12.587Z,1.17
2019-05-15T21:52:41.990Z,1.62
2019-05-15T21:55:11.797Z,1.70
2019-05-15T21:57:42.507Z,1.10
2019-05-15T22:00:21.541Z,1.62
2019-05-15T22:02:52.791Z,1.17
2019-05-15T22:05:22.459Z,1.17
2019-05-15T22:07:51.974Z,1.62
2019-05-15T22:10:21.477Z,1.50
2019-05-15T22:12:51.072Z,1.60
2019-05-15T22:15:20.614Z,1.27
2019-05-15T22:17:50.704Z,1.57
2019-05-15T22:20:20.245Z,1.72
2019-05-15T22:22:50.880Z,1.75
2019-05-15T22:25:23.661Z,1.32
2019-05-15T22:28:03.547Z,1.92
2019-05-15T22:30:30.377Z,1.67
2019-05-15T22:33:00.041Z,2.00
2019-05-15T22:35:29.795Z,2.20
2019-05-15T22:37:59.469Z,1.95
2019-05-15T22:40:29.254Z,1.77
2019-05-15T22:42:59.628Z,2.02
2019-05-15T22:45:29.433Z,1.90
2019-05-15T22:47:58.875Z,2.33
2019-05-15T22:50:28.441Z,1.85
2019-05-15T22:52:58.847Z,1.52
2019-05-15T22:55:29.174Z,1.40
2019-05-15T22:57:59.248Z,1.65
2019-05-15T23:00:29.900Z,2.20
2019-05-15T23:02:59.431Z,1.50
2019-05-15T23:05:34.847Z,1.87
2019-05-15T23:08:04.371Z,2.17
2019-05-15T23:10:37.814Z,1.92
2019-05-15T23:13:06.394Z,1.82
2019-05-15T23:15:38.371Z,1.87
2019-05-15T23:18:08.580Z,1.70
2019-05-15T23:20:38.811Z,2.50
2019-05-15T23:23:09.427Z,1.55
2019-05-15T23:25:38.938Z,1.60
2019-05-15T23:28:08.620Z,1.52
2019-05-15T23:30:39.281Z,1.42
2019-05-15T23:33:08.743Z,1.57
2019-05-15T23:35:41.347Z,1.90
2019-05-15T23:38:09.239Z,1.90
2019-05-15T23:40:41.474Z,1.75
2019-05-15T23:43:10.874Z,1.60
2019-05-15T23:45:40.813Z,1.62
2019-05-15T23:48:10.301Z,1.57
2019-05-15T23:50:39.753Z,2.20
2019-05-15T23:53:11.722Z,2.20
2019-05-15T23:55:41.205Z,1.77
2019-05-15T23:58:10.667Z,1.85
